Norwegian Crown — C6II4 — position and weather

sailwx.info

Track history (hours):
 
Tides and Currents Weather Stations Pressure Air Temp Water Temp Dewpoint Dewpoint Depression Visibility Wind Speed Wind Dir Waves Ship Positions

Norwegian Crown

Operator: Norwegian Cruise Line

Last reported at 2014-Sep-19 11:18 UTC. Time now 2014-Sep-19 22:01 UTC.
Position N 42°22' W 070°55'.

Type: Passenger vessel. MMSI: 308785000.

Date/timePositionNaut miles runAvg speedWind from/ knotsBaromVisibWave heightAir tempDewpointWater temp
2014-Sep-19 11:18N 42°22' W 070°55'1013.0
2014-Sep-19 10:34N 42°26' W 070°44'335 8.0
2014-Sep-17 16:31N 44°20' W 063°31'1414.5
2014-Sep-17 15:33N 44°34' W 063°32'5 3.6
2014-Sep-17 14:09N 44°38' W 063°34'0 0.0
2014-Sep-17 13:25N 44°38' W 063°34'0 0.0
2014-Sep-17 12:28N 44°38' W 063°34'0 0.0
2014-Sep-17 11:28N 44°38' W 063°34'0 0.0
2014-Sep-17 10:28N 44°38' W 063°34'0 0.0
2014-Sep-17 09:31N 44°38' W 063°34'0 0.0
2014-Sep-17 08:31N 44°38' W 063°34'0 0.0
2014-Sep-17 07:28N 44°38' W 063°34'0 0.0
2014-Sep-17 06:31N 44°38' W 063°34'0 0.0
2014-Sep-17 05:31N 44°38' W 063°34'0 0.0
2014-Sep-17 04:31N 44°38' W 063°34'0 0.0
2014-Sep-17 03:22N 44°38' W 063°34'0 0.0
2014-Sep-17 02:22N 44°38' W 063°34'0 0.0
2014-Sep-17 01:25N 44°38' W 063°34'0 0.0
2014-Sep-17 00:25N 44°38' W 063°34'0 0.0
2014-Sep-16 23:25N 44°38' W 063°34'0 0.0
2014-Sep-16 22:28N 44°38' W 063°34'0 0.0
2014-Sep-16 21:28N 44°38' W 063°34'0 0.0
2014-Sep-16 20:28N 44°38' W 063°34'0 0.0
2014-Sep-16 19:31N 44°38' W 063°34'0 0.0
2014-Sep-16 18:16N 44°38' W 063°34'0 0.0
2014-Sep-16 17:31N 44°38' W 063°34'0 0.0
2014-Sep-16 16:31N 44°38' W 063°34'0 0.0
2014-Sep-16 15:19N 44°38' W 063°34'0 0.0
2014-Sep-16 14:19N 44°38' W 063°34'0 0.0
2014-Sep-16 13:22N 44°38' W 063°34'0 0.0
2014-Sep-16 12:10N 44°38' W 063°34'0 0.0
2014-Sep-16 11:33N 44°38' W 063°34'5 5.5
2014-Sep-16 10:33N 44°33' W 063°32'7 7.2
2014-Sep-16 09:32N 44°28' W 063°25'1110.4
2014-Sep-16 08:31N 44°28' W 063°10'1010.3
2014-Sep-16 07:33N 44°28' W 062°56'  
Track history (hours):
 
Tides and Currents Weather Stations Pressure Air Temp Water Temp Dewpoint Dewpoint Depression Visibility Wind Speed Wind Dir Waves Ship Positions

Norwegian Crown

Operator: Norwegian Cruise Line

Last reported at 2014-Sep-19 11:18 UTC. Time now 2014-Sep-19 22:01 UTC.
Position N 42°22' W 070°55'.

Type: Passenger vessel. MMSI: 308785000.

Date/timePositionNaut miles runAvg speedWind from/ knotsBaromVisibWave heightAir tempDewpointWater temp
2014-Sep-19 11:18N 42°22' W 070°55'1013.0
2014-Sep-19 10:34N 42°26' W 070°44'335 8.0
2014-Sep-17 16:31N 44°20' W 063°31'1414.5
2014-Sep-17 15:33N 44°34' W 063°32'5 3.6
2014-Sep-17 14:09N 44°38' W 063°34'0 0.0
2014-Sep-17 13:25N 44°38' W 063°34'0 0.0
2014-Sep-17 12:28N 44°38' W 063°34'0 0.0
2014-Sep-17 11:28N 44°38' W 063°34'0 0.0
2014-Sep-17 10:28N 44°38' W 063°34'0 0.0
2014-Sep-17 09:31N 44°38' W 063°34'0 0.0
2014-Sep-17 08:31N 44°38' W 063°34'0 0.0
2014-Sep-17 07:28N 44°38' W 063°34'0 0.0
2014-Sep-17 06:31N 44°38' W 063°34'0 0.0
2014-Sep-17 05:31N 44°38' W 063°34'0 0.0
2014-Sep-17 04:31N 44°38' W 063°34'0 0.0
2014-Sep-17 03:22N 44°38' W 063°34'0 0.0
2014-Sep-17 02:22N 44°38' W 063°34'0 0.0
2014-Sep-17 01:25N 44°38' W 063°34'0 0.0
2014-Sep-17 00:25N 44°38' W 063°34'0 0.0
2014-Sep-16 23:25N 44°38' W 063°34'0 0.0
2014-Sep-16 22:28N 44°38' W 063°34'0 0.0
2014-Sep-16 21:28N 44°38' W 063°34'0 0.0
2014-Sep-16 20:28N 44°38' W 063°34'0 0.0
2014-Sep-16 19:31N 44°38' W 063°34'0 0.0
2014-Sep-16 18:16N 44°38' W 063°34'0 0.0
2014-Sep-16 17:31N 44°38' W 063°34'0 0.0
2014-Sep-16 16:31N 44°38' W 063°34'0 0.0
2014-Sep-16 15:19N 44°38' W 063°34'0 0.0
2014-Sep-16 14:19N 44°38' W 063°34'0 0.0
2014-Sep-16 13:22N 44°38' W 063°34'0 0.0
2014-Sep-16 12:10N 44°38' W 063°34'0 0.0
2014-Sep-16 11:33N 44°38' W 063°34'5 5.5
2014-Sep-16 10:33N 44°33' W 063°32'7 7.2
2014-Sep-16 09:32N 44°28' W 063°25'1110.4
2014-Sep-16 08:31N 44°28' W 063°10'1010.3
2014-Sep-16 07:33N 44°28' W 062°56'  

Dump ship's entire track history